Independence Township, Michigan
Current Conditions -  °F | °C
As of 4:49 PM on Thursday 18 Dec 2014 (Local Time) from KPTK Reporting Station
Overcast Overcast  
Wind Chill: 25°   Ceiling: 2700
Heat Index: 30°   Visibility: 10mi
Dew Point: 27°   Wind: 5mph
Humidity: 86%   Direction: 310°NW
Pressure: 30.13"   Gusts: NA
Location:  42.7676°N, 83.4033°W
Report Text: KPTK 182149Z 31004KT 10SM SCT020 OVC027 M01/M03 A3013 RMK AO2
Loading
Personal Weather Stations






























Interactive Weather Map New forecast layout! Learn more

10-Day Weather Forecast

Advertisements
Track Severe Weather on mobile